Time;durP1;ratioP1;P1;durP2;ratioP2;P2;SDS_P1;SDS_P2;PMS_P1;PMS_P2;Temp;Humidity;BMP_temperature;BMP_pressure;BME280_temperature;BME280_humidity;BME280_pressure;Samples;Min_cycle;Max_cycle;Signal;HPM_P1;HPM_P2
2022/08/31 00:04:05;;;;;;;7.07;5.93;;;;;;;11.23;100.00;97107.25;10328021;28;20692;-72
2022/08/31 00:09:06;;;;;;;7.20;5.70;;;;;;;11.07;100.00;97098.25;10328267;28;20197;-72
2022/08/31 00:14:08;;;;;;;8.95;6.45;;;;;;;11.07;100.00;97102.66;10327926;28;20317;-72
2022/08/31 00:19:08;;;;;;;10.63;5.82;;;;;;;11.09;100.00;97099.88;10326312;28;20233;-72
2022/08/31 00:24:09;;;;;;;10.48;5.60;;;;;;;11.04;100.00;97101.19;10327244;28;20314;-72
2022/08/31 00:29:12;;;;;;;8.30;6.05;;;;;;;11.05;100.00;97105.44;10327525;28;20185;-72
2022/08/31 00:34:13;;;;;;;7.85;6.25;;;;;;;10.96;100.00;97097.66;10327265;28;20290;-72
2022/08/31 00:39:13;;;;;;;11.15;7.50;;;;;;;10.75;100.00;97097.94;10327245;28;20198;-72
2022/08/31 00:44:14;;;;;;;11.10;7.30;;;;;;;10.64;100.00;97106.81;10327301;28;20257;-72
2022/08/31 00:49:18;;;;;;;9.55;7.10;;;;;;;10.62;100.00;97108.78;10325856;28;20182;-72
2022/08/31 00:54:22;;;;;;;11.82;6.47;;;;;;;10.64;100.00;97118.16;10325212;28;20217;-72
2022/08/31 00:59:23;;;;;;;9.57;6.17;;;;;;;10.77;100.00;97120.41;10326235;28;20240;-72
2022/08/31 01:04:23;;;;;;;8.25;6.25;;;;;;;10.78;100.00;97126.47;10324402;28;20216;-72
2022/08/31 01:09:26;;;;;;;7.97;6.45;;;;;;;10.80;100.00;97121.91;10309395;28;20194;-72
2022/08/31 01:14:26;;;;;;;8.87;6.53;;;;;;;10.64;100.00;97115.53;10324393;28;20265;-72
2022/08/31 01:19:33;;;;;;;7.75;6.60;;;;;;;10.66;100.00;97118.00;10324269;28;20186;-73
2022/08/31 01:24:34;;;;;;;9.83;6.70;;;;;;;10.67;100.00;97109.16;10324484;28;20696;-72
2022/08/31 01:29:34;;;;;;;7.50;5.90;;;;;;;10.64;100.00;97112.91;10325020;28;20190;-72
2022/08/31 01:34:35;;;;;;;10.87;5.80;;;;;;;10.67;100.00;97117.00;10324140;28;20248;-72
2022/08/31 01:39:35;;;;;;;8.70;6.07;;;;;;;10.57;100.00;97116.25;10333439;28;20194;-73
2022/08/31 01:44:36;;;;;;;9.13;6.93;;;;;;;10.51;100.00;97112.41;10332895;28;20308;-73
2022/08/31 01:49:36;;;;;;;11.03;6.47;;;;;;;10.62;100.00;97122.69;10333531;28;20205;-72
2022/08/31 01:54:36;;;;;;;6.63;5.57;;;;;;;10.53;100.00;97116.56;10332946;28;20225;-73
2022/08/31 01:59:38;;;;;;;6.95;6.15;;;;;;;10.36;100.00;97114.69;10331637;28;20667;-72
2022/08/31 02:05:14;;;;;;;9.50;5.75;;;;;;;10.29;100.00;97109.19;10332384;28;20234;-72
2022/08/31 02:10:14;;;;;;;7.90;6.30;;;;;;;10.41;100.00;97107.22;10331293;28;20662;-72
2022/08/31 02:15:15;;;;;;;6.23;5.57;;;;;;;10.40;100.00;97109.97;10330618;28;20194;-72
2022/08/31 02:20:16;;;;;;;7.57;6.20;;;;;;;10.22;100.00;97107.28;10330712;28;20268;-72
2022/08/31 02:25:17;;;;;;;6.57;5.87;;;;;;;10.22;100.00;97099.44;10331913;28;20848;-72
2022/08/31 02:30:18;;;;;;;9.30;6.47;;;;;;;10.15;100.00;97094.78;10330791;28;20280;-72
2022/08/31 02:35:18;;;;;;;7.03;6.00;;;;;;;10.18;100.00;97101.50;10331440;28;20202;-72
2022/08/31 02:40:18;;;;;;;8.67;5.57;;;;;;;10.18;100.00;97099.72;10330721;28;20198;-72
2022/08/31 02:45:19;;;;;;;9.87;5.93;;;;;;;10.13;100.00;97099.31;10330718;28;20213;-72
2022/08/31 02:50:19;;;;;;;10.77;5.93;;;;;;;10.17;100.00;97105.94;10330853;28;20243;-72
2022/08/31 02:55:20;;;;;;;5.87;5.27;;;;;;;10.20;100.00;97102.19;10329347;28;20776;-72
2022/08/31 03:00:22;;;;;;;10.00;6.03;;;;;;;10.17;100.00;97112.97;10329448;28;20713;-71
2022/08/31 03:05:23;;;;;;;6.90;5.60;;;;;;;9.99;100.00;97105.84;10354460;28;20224;-72
2022/08/31 03:10:25;;;;;;;8.03;5.57;;;;;;;9.99;100.00;97102.41;10363464;28;20186;-72
2022/08/31 03:15:26;;;;;;;7.93;5.50;;;;;;;9.99;100.00;97099.78;10362609;28;20193;-72
2022/08/31 03:20:28;;;;;;;8.10;5.30;;;;;;;10.00;100.00;97093.59;10346314;28;20190;-72
2022/08/31 03:25:29;;;;;;;9.60;5.83;;;;;;;9.97;100.00;97097.31;10362129;28;20217;-72
2022/08/31 03:30:29;;;;;;;11.43;6.23;;;;;;;10.02;100.00;97096.06;10363569;28;20558;-72
2022/08/31 03:35:36;;;;;;;7.10;5.90;;;;;;;10.05;100.00;97099.22;10361748;28;20240;-72
2022/08/31 03:40:38;;;;;;;10.37;5.90;;;;;;;9.96;100.00;97087.00;10361894;28;20276;-72
2022/08/31 03:45:40;;;;;;;9.03;6.00;;;;;;;9.94;100.00;97091.56;10360609;28;20217;-72
2022/08/31 03:50:41;;;;;;;8.90;5.83;;;;;;;9.88;100.00;97092.13;10344025;28;20205;-72
2022/08/31 03:55:46;;;;;;;6.77;5.83;;;;;;;9.91;100.00;97103.13;10344609;28;20302;-72
2022/08/31 04:00:46;;;;;;;7.33;5.43;;;;;;;9.91;100.00;97102.31;10359557;28;20253;-72
2022/08/31 04:06:11;;;;;;;7.80;6.17;;;;;;;9.90;100.00;97103.28;10368504;28;20235;-72
2022/08/31 04:11:30;;;;;;;12.00;5.97;;;;;;;9.98;100.00;97113.84;10368386;28;20284;-72
2022/08/31 04:17:10;;;;;;;6.47;5.17;;;;;;;9.97;100.00;97118.25;10366751;28;20193;-73
2022/08/31 04:22:16;;;;;;;8.23;5.50;;;;;;;9.98;100.00;97122.53;10351734;28;20220;-72
2022/08/31 04:27:37;;;;;;;6.77;5.13;;;;;;;9.95;100.00;97114.97;10352384;28;20209;-72
2022/08/31 04:32:37;;;;;;;6.43;5.03;;;;;;;9.96;100.00;97121.84;10366484;28;20185;-73
2022/08/31 04:37:40;;;;;;;8.23;5.27;;;;;;;9.83;100.00;97121.31;10365621;28;20231;-72
2022/08/31 04:42:40;;;;;;;11.87;5.90;;;;;;;9.95;100.00;97114.97;10367721;28;20305;-72
2022/08/31 04:47:41;;;;;;;7.73;5.40;;;;;;;10.02;100.00;97122.25;10365667;28;20300;-72
2022/08/31 04:52:43;;;;;;;8.77;6.17;;;;;;;10.04;100.00;97121.13;10366101;28;20189;-72
2022/08/31 04:57:44;;;;;;;8.73;5.40;;;;;;;10.14;100.00;97121.09;10365646;28;20635;-72
2022/08/31 05:02:45;;;;;;;8.37;5.97;;;;;;;10.19;100.00;97118.88;10365617;28;20724;-71
2022/08/31 05:07:49;;;;;;;14.67;6.03;;;;;;;10.29;100.00;97122.28;10365810;28;20185;-72
2022/08/31 05:12:50;;;;;;;8.90;5.17;;;;;;;10.28;100.00;97131.09;10372260;28;20189;-72
2022/08/31 05:17:54;;;;;;;8.23;5.30;;;;;;;10.27;100.00;97133.84;10373058;28;20189;-72
2022/08/31 05:22:54;;;;;;;7.23;5.43;;;;;;;10.51;100.00;97133.38;10356973;28;20728;-72
2022/08/31 05:27:55;;;;;;;12.43;5.85;;;;;;;10.76;100.00;97142.31;10373165;28;20608;-72
2022/08/31 05:32:55;;;;;;;9.73;5.78;;;;;;;11.00;100.00;97143.56;10373533;28;20190;-72
2022/08/31 05:37:56;;;;;;;6.80;5.75;;;;;;;11.20;100.00;97139.81;10372640;28;20287;-72
2022/08/31 05:42:58;;;;;;;6.13;4.97;;;;;;;11.43;100.00;97129.69;10372734;28;20189;-72
2022/08/31 05:47:59;;;;;;;6.38;4.70;;;;;;;11.74;100.00;97137.16;10373841;28;20185;-72
2022/08/31 05:52:59;;;;;;;6.10;4.10;;;;;;;11.99;100.00;97134.75;10372780;28;20200;-72
2022/08/31 05:58:00;;;;;;;5.85;4.53;;;;;;;12.32;100.00;97132.28;10371704;28;20237;-73
2022/08/31 06:03:00;;;;;;;5.90;3.97;;;;;;;12.57;100.00;97142.88;10372330;28;20251;-73
2022/08/31 06:08:01;;;;;;;6.53;4.40;;;;;;;12.72;100.00;97130.78;10371655;28;20601;-73
2022/08/31 06:13:03;;;;;;;9.10;6.20;;;;;;;13.14;100.00;97131.69;10372079;28;20395;-73
2022/08/31 06:18:15;;;;;;;10.45;6.20;;;;;;;13.70;100.00;97129.28;10372519;28;20569;-73
2022/08/31 06:23:16;;;;;;;10.63;5.68;;;;;;;14.03;100.00;97124.00;10350080;28;20222;-73
2022/08/31 06:28:21;;;;;;;7.55;4.65;;;;;;;14.32;100.00;97126.03;10334997;28;20194;-73
2022/08/31 06:33:21;;;;;;;14.18;6.38;;;;;;;14.06;100.00;97134.19;10334408;28;20280;-72
2022/08/31 06:38:34;;;;;;;10.35;6.00;;;;;;;13.79;100.00;97133.56;10332858;28;20210;-72
2022/08/31 06:44:09;;;;;;;13.27;6.90;;;;;;;13.70;100.00;97138.00;10349191;28;20221;-71
2022/08/31 06:49:33;;;;;;;10.07;6.40;;;;;;;14.28;100.00;97133.44;10367038;28;20225;-73
2022/08/31 06:54:34;;;;;;;12.82;6.65;;;;;;;14.51;100.00;97130.09;10366803;28;20646;-73
2022/08/31 06:59:53;;;;;;;7.63;6.43;;;;;;;14.75;100.00;97133.66;10372949;28;20209;-72
2022/08/31 07:05:22;;;;;;;10.57;6.03;;;;;;;14.58;100.00;97138.97;10363526;28;20221;-72
2022/08/31 07:10:23;;;;;;;9.50;6.18;;;;;;;14.90;100.00;97137.19;10368085;28;20818;-72
2022/08/31 07:15:23;;;;;;;8.15;5.80;;;;;;;15.03;100.00;97135.81;10370054;28;20254;-73
2022/08/31 07:20:24;;;;;;;7.72;5.78;;;;;;;15.43;100.00;97134.69;10364129;28;20220;-72
2022/08/31 07:25:25;;;;;;;7.28;6.05;;;;;;;15.37;100.00;97126.66;10368504;28;20308;-73
2022/08/31 07:30:26;;;;;;;6.38;5.75;;;;;;;15.31;100.00;97139.59;10369675;28;20205;-73
2022/08/31 07:35:30;;;;;;;9.43;5.82;;;;;;;15.50;100.00;97140.91;10359574;28;20197;-72
2022/08/31 07:46:10;;;;;;;5.40;4.88;;;;;;;16.28;100.00;97140.75;10368519;28;20594;-73
2022/08/31 07:51:22;;;;;;;8.02;4.95;;;;;;;16.46;100.00;97140.38;10344527;28;20193;-72
2022/08/31 07:56:51;;;;;;;6.80;4.70;;;;;;;16.84;100.00;97139.41;10360000;28;20226;-72
2022/08/31 08:02:00;;;;;;;5.85;4.25;;;;;;;16.97;100.00;97139.59;10374340;28;20316;-71
2022/08/31 08:07:04;;;;;;;7.10;4.38;;;;;;;16.86;100.00;97143.53;10366417;28;20228;-72
2022/08/31 08:12:24;;;;;;;6.45;4.13;;;;;;;17.06;100.00;97142.94;10368001;28;20197;-72
2022/08/31 08:17:28;;;;;;;6.38;4.13;;;;;;;16.72;100.00;97147.00;10363815;28;20178;-71
2022/08/31 08:22:39;;;;;;;5.82;4.03;;;;;;;17.64;100.00;97140.25;10331961;28;20937;-72
2022/08/31 08:27:53;;;;;;;10.32;4.95;;;;;;;16.93;100.00;97162.94;10323997;28;20221;-71
2022/08/31 08:33:02;;;;;;;8.90;4.68;;;;;;;17.03;100.00;97173.25;10360399;28;20331;-71
2022/08/31 08:38:03;;;;;;;8.85;4.75;;;;;;;17.63;100.00;97155.31;10364623;28;20252;-71
2022/08/31 08:43:04;;;;;;;5.22;4.35;;;;;;;18.13;100.00;97149.22;10365901;28;20189;-72
2022/08/31 08:48:10;;;;;;;5.88;4.82;;;;;;;18.13;100.00;97158.00;10363110;28;20193;-72
2022/08/31 08:53:11;;;;;;;9.23;5.18;;;;;;;18.05;100.00;97163.44;10362022;28;20544;-72
2022/08/31 08:58:26;;;;;;;6.90;4.63;;;;;;;17.97;100.00;97175.00;10346718;28;20233;-71
2022/08/31 09:03:43;;;;;;;7.10;4.68;;;;;;;17.96;100.00;97170.72;10363475;28;20689;-71
2022/08/31 09:09:20;;;;;;;8.85;4.82;;;;;;;17.83;100.00;97176.69;10366190;28;20673;-72
2022/08/31 09:15:10;;;;;;;6.07;3.97;;;;;;;18.42;100.00;97158.78;10364978;28;20251;-72
2022/08/31 09:20:15;;;;;;;5.13;4.43;;;;;;;18.12;100.00;97174.91;10315148;28;20193;-71
2022/08/31 09:25:31;;;;;;;9.40;5.40;;;;;;;18.22;99.00;97141.94;10357122;28;20213;-72
2022/08/31 09:30:50;;;;;;;7.03;4.47;;;;;;;19.13;97.67;97152.38;10350417;28;20199;-72
2022/08/31 09:35:57;;;;;;;10.00;6.43;;;;;;;19.34;92.11;97121.38;10363850;28;20202;-72
2022/08/31 09:40:58;;;;;;;7.03;4.90;;;;;;;19.29;90.55;97131.78;10365159;28;20629;-72
2022/08/31 09:46:08;;;;;;;7.40;4.78;;;;;;;18.70;93.38;97147.31;10365186;28;20229;-72
2022/08/31 09:51:26;;;;;;;6.22;3.70;;;;;;;19.87;88.64;97137.38;10363616;28;20293;-72
2022/08/31 09:56:27;;;;;;;7.25;3.60;;;;;;;20.89;83.77;97109.50;10366198;28;20321;-72
2022/08/31 10:01:34;;;;;;;6.43;3.42;;;;;;;20.55;82.74;97093.66;10370808;28;20202;-73
2022/08/31 10:06:44;;;;;;;4.22;3.17;;;;;;;20.94;81.63;97097.19;10368462;28;20266;-73
2022/08/31 10:11:46;;;;;;;4.28;2.45;;;;;;;20.18;79.88;97077.38;10336987;28;20201;-73
2022/08/31 10:16:50;;;;;;;4.90;3.00;;;;;;;20.08;82.62;97112.41;10362731;28;20551;-72
2022/08/31 10:22:02;;;;;;;3.97;2.63;;;;;;;19.95;83.17;97120.38;10369788;28;20197;-72
2022/08/31 10:27:09;;;;;;;3.88;2.20;;;;;;;20.62;79.01;97083.78;10372341;28;20746;-72
2022/08/31 10:32:18;;;;;;;4.70;2.60;;;;;;;20.18;74.21;97029.50;10369540;28;20200;-72
2022/08/31 10:37:37;;;;;;;2.90;2.22;;;;;;;20.57;74.82;97048.19;10372390;28;20205;-73
2022/08/31 10:42:42;;;;;;;4.97;2.22;;;;;;;21.38;73.40;97046.72;10370744;28;20205;-73
2022/08/31 10:47:46;;;;;;;3.60;2.13;;;;;;;21.10;73.16;97047.09;10370620;28;20217;-72
2022/08/31 10:53:12;;;;;;;8.32;2.50;;;;;;;21.06;70.23;96997.94;10354635;28;20189;-72
2022/08/31 10:58:33;;;;;;;2.78;2.22;;;;;;;20.41;73.59;97050.31;10332388;28;20294;-72
2022/08/31 11:04:00;;;;;;;1.92;1.52;;;;;;;20.89;72.46;97045.59;10326924;28;20226;-72
2022/08/31 11:09:32;;;;;;;2.40;1.90;;;;;;;20.54;71.50;97041.44;10328235;28;20198;-73
2022/08/31 11:14:44;;;;;;;6.65;2.10;;;;;;;20.17;74.90;97075.78;10326474;28;20247;-73
2022/08/31 11:20:09;;;;;;;3.17;1.90;;;;;;;20.22;74.92;97086.59;10350625;28;20280;-72
2022/08/31 11:25:23;;;;;;;6.03;5.05;;;;;;;20.55;72.29;97042.25;10366721;28;20276;-73
2022/08/31 11:30:27;;;;;;;3.25;2.10;;;;;;;20.38;70.88;97020.63;10365238;28;20189;-72
2022/08/31 11:35:46;;;;;;;4.18;1.95;;;;;;;20.43;71.40;97032.28;10365562;28;20302;-73
2022/08/31 11:40:59;;;;;;;2.50;1.50;;;;;;;20.64;69.80;97017.84;10354980;28;20221;-73
2022/08/31 11:46:38;;;;;;;2.40;1.60;;;;;;;20.91;69.55;97015.06;10357212;28;20709;-72
2022/08/31 11:51:41;;;;;;;2.80;1.70;;;;;;;21.33;68.63;97004.72;10345190;28;20189;-73
2022/08/31 11:56:46;;;;;;;4.13;1.50;;;;;;;21.32;67.78;97000.41;10344484;28;20253;-72
2022/08/31 12:01:46;;;;;;;5.68;1.90;;;;;;;20.98;70.03;97028.31;10343918;28;20559;-73
2022/08/31 12:06:46;;;;;;;2.67;1.80;;;;;;;21.04;69.32;97014.13;10344040;28;20217;-73
2022/08/31 12:12:08;;;;;;;4.28;1.90;;;;;;;20.57;70.26;97025.06;10344065;28;20193;-72
2022/08/31 12:17:29;;;;;;;3.42;1.60;;;;;;;20.13;69.11;97000.06;10342641;28;20186;-71
2022/08/31 12:28:44;;;;;;;4.88;3.40;;;;;;;20.17;73.23;97061.63;10339199;28;20202;-73
2022/08/31 12:33:54;;;;;;;5.57;2.97;;;;;;;20.63;71.78;97047.34;10324092;28;20240;-72
2022/08/31 12:39:12;;;;;;;13.68;10.27;;;;;;;20.90;68.82;97000.09;10331723;28;20229;-72
2022/08/31 12:44:21;;;;;;;3.58;2.67;;;;;;;20.55;69.95;97015.63;10362487;28;20290;-72
2022/08/31 12:49:30;;;;;;;4.88;1.60;;;;;;;20.87;70.90;97047.66;10364511;28;20234;-72
2022/08/31 12:54:52;;;;;;;2.80;1.63;;;;;;;21.19;68.21;97003.19;10363330;28;20289;-72
2022/08/31 13:00:26;;;;;;;2.53;1.50;;;;;;;21.03;66.62;96976.03;10361849;28;20208;-73
2022/08/31 13:05:30;;;;;;;2.50;1.58;;;;;;;21.59;66.98;96997.53;10357946;28;20315;-72
2022/08/31 13:17:03;;;;;;;6.10;1.55;;;;;;;21.76;64.87;96968.47;10363148;28;20559;-73
2022/08/31 13:22:15;;;;;;;2.75;1.20;;;;;;;21.96;65.59;96970.06;10362403;28;20196;-72
2022/08/31 13:27:19;;;;;;;2.42;1.85;;;;;;;22.06;63.93;96944.50;10362153;28;20662;-73
2022/08/31 13:32:32;;;;;;;1.70;1.17;;;;;;;21.42;65.70;96953.78;10369970;28;20270;-73
2022/08/31 13:37:38;;;;;;;4.63;1.50;;;;;;;21.94;64.22;96950.81;10332746;28;20297;-73
2022/08/31 13:42:44;;;;;;;3.75;1.80;;;;;;;21.10;65.25;96962.69;10371533;28;20272;-72
2022/08/31 13:47:54;;;;;;;2.85;1.13;;;;;;;21.17;65.76;96955.44;10385902;28;20232;-72
2022/08/31 13:52:56;;;;;;;3.38;1.38;;;;;;;22.14;61.24;96892.69;10394520;28;20193;-73
2022/08/31 13:58:30;;;;;;;3.70;1.13;;;;;;;22.19;62.30;96929.34;10387056;28;20223;-72
2022/08/31 14:03:44;;;;;;;1.40;1.20;;;;;;;22.22;59.98;96870.19;10343945;28;20253;-72
2022/08/31 14:08:47;;;;;;;2.70;1.30;;;;;;;22.06;62.44;96925.81;10341529;28;20198;-72
2022/08/31 14:13:48;;;;;;;1.83;1.58;;;;;;;21.50;62.46;96914.38;10330948;28;20726;-72
2022/08/31 14:18:54;;;;;;;2.00;1.10;;;;;;;21.02;63.21;96920.31;10365232;28;20219;-72
2022/08/31 14:24:27;;;;;;;3.28;1.00;;;;;;;21.80;63.79;96939.50;10371036;28;20294;-72
2022/08/31 14:29:28;;;;;;;1.85;1.15;;;;;;;22.27;64.39;96958.41;10361920;28;20236;-73
2022/08/31 14:34:30;;;;;;;2.35;1.40;;;;;;;21.58;64.49;96950.59;10316695;28;20218;-72
2022/08/31 14:39:32;;;;;;;1.65;1.20;;;;;;;21.07;64.55;96936.47;10338147;28;20278;-73
2022/08/31 14:44:38;;;;;;;4.63;1.40;;;;;;;21.07;65.88;96967.63;10335904;28;20756;-73
2022/08/31 14:49:42;;;;;;;1.88;1.25;;;;;;;20.97;65.78;96963.59;10377120;28;20201;-73
2022/08/31 14:54:43;;;;;;;4.25;1.45;;;;;;;20.74;66.63;96960.69;10393778;28;20220;-73
2022/08/31 14:59:45;;;;;;;4.05;1.63;;;;;;;20.63;66.02;96941.69;10384514;28;20735;-72
2022/08/31 15:04:47;;;;;;;3.40;1.13;;;;;;;20.63;67.06;96962.16;10369836;28;20324;-73
2022/08/31 15:09:47;;;;;;;2.60;1.48;;;;;;;20.18;68.46;96983.47;10352816;28;20255;-73
2022/08/31 15:14:48;;;;;;;2.05;1.20;;;;;;;19.81;68.34;96959.25;10345452;28;20717;-73
2022/08/31 15:19:53;;;;;;;1.23;1.13;;;;;;;19.67;69.95;96982.38;10331034;28;20194;-73
2022/08/31 15:24:54;;;;;;;4.05;1.13;;;;;;;19.35;71.82;97008.78;10325629;28;20614;-72
2022/08/31 15:30:01;;;;;;;3.15;1.60;;;;;;;19.30;73.02;97024.53;10328426;28;20194;-73
2022/08/31 15:35:01;;;;;;;4.63;1.30;;;;;;;19.24;73.45;97020.84;10341133;28;20205;-73
2022/08/31 15:40:03;;;;;;;5.63;1.30;;;;;;;18.87;74.23;97028.34;10368709;28;20215;-73
2022/08/31 15:45:05;;;;;;;2.47;1.40;;;;;;;19.09;73.25;97007.75;10367753;28;20213;-73
2022/08/31 15:50:06;;;;;;;2.67;1.23;;;;;;;18.76;76.09;97047.47;10367563;28;20193;-73
2022/08/31 15:55:06;;;;;;;1.60;1.50;;;;;;;18.60;73.80;97011.50;10365947;28;20233;-74
2022/08/31 16:00:12;;;;;;;6.43;1.70;;;;;;;17.93;78.34;97057.13;10368308;28;20189;-72
2022/08/31 16:05:13;;;;;;;1.40;1.30;;;;;;;18.10;79.73;97062.09;10366765;28;20712;-73
2022/08/31 16:10:14;;;;;;;1.77;1.30;;;;;;;18.07;81.44;97055.38;10367477;28;20197;-73
2022/08/31 16:15:15;;;;;;;4.43;1.92;;;;;;;17.76;82.01;97048.59;10367548;28;20284;-73
2022/08/31 16:20:16;;;;;;;2.60;1.85;;;;;;;17.85;83.12;97056.44;10364759;28;20198;-72
2022/08/31 16:25:16;;;;;;;3.00;1.50;;;;;;;17.78;82.81;97041.31;10364904;28;20229;-72
2022/08/31 16:30:17;;;;;;;3.47;1.30;;;;;;;17.79;84.34;97055.34;10365480;28;20190;-72
2022/08/31 16:35:18;;;;;;;4.82;1.40;;;;;;;17.80;84.17;97052.50;10344331;28;20208;-73
2022/08/31 16:40:18;;;;;;;3.08;1.63;;;;;;;17.89;84.20;97044.47;10340595;28;20193;-73
2022/08/31 16:45:18;;;;;;;3.00;1.30;;;;;;;17.80;83.31;97035.81;10325818;28;20604;-73
2022/08/31 16:50:19;;;;;;;4.50;1.45;;;;;;;17.68;85.63;97055.91;10326592;28;20302;-73
2022/08/31 16:55:20;;;;;;;2.45;1.70;;;;;;;17.57;86.33;97050.13;10325079;28;20233;-72
2022/08/31 17:00:20;;;;;;;3.78;1.80;;;;;;;17.33;89.66;97067.25;10325347;28;20213;-72
2022/08/31 17:05:21;;;;;;;3.30;1.60;;;;;;;17.30;89.39;97064.97;10324622;28;20720;-72
2022/08/31 17:10:22;;;;;;;2.25;1.52;;;;;;;17.25;89.89;97070.84;10330614;28;20182;-72
2022/08/31 17:15:25;;;;;;;1.77;1.50;;;;;;;17.27;89.85;97060.06;10365278;28;20288;-72
2022/08/31 17:20:29;;;;;;;5.25;1.67;;;;;;;17.08;91.22;97074.75;10366254;28;20202;-73
2022/08/31 17:25:32;;;;;;;6.15;1.40;;;;;;;16.99;90.92;97074.06;10357534;28;20221;-72
2022/08/31 17:30:32;;;;;;;2.33;1.40;;;;;;;16.68;94.90;97091.00;10347376;28;20209;-72
2022/08/31 17:35:33;;;;;;;2.65;1.73;;;;;;;16.61;96.82;97091.91;10344111;28;20201;-72
2022/08/31 17:40:33;;;;;;;2.85;1.67;;;;;;;16.25;99.58;97092.69;10346745;28;20276;-73
2022/08/31 17:45:34;;;;;;;4.70;1.33;;;;;;;16.07;100.00;97096.50;10344689;28;20210;-72
2022/08/31 17:50:42;;;;;;;4.78;1.95;;;;;;;15.41;100.00;97114.78;10345902;28;20189;-73
2022/08/31 17:55:53;;;;;;;1.95;1.70;;;;;;;15.63;100.00;97116.53;10346366;28;20288;-72
2022/08/31 18:00:54;;;;;;;5.65;2.40;;;;;;;14.62;100.00;97127.13;10351287;28;20194;-72
2022/08/31 18:05:55;;;;;;;7.32;2.80;;;;;;;14.42;100.00;97131.09;10347344;28;20245;-73
2022/08/31 18:10:55;;;;;;;2.45;2.25;;;;;;;14.35;100.00;97141.53;10345410;28;20197;-72
2022/08/31 18:15:55;;;;;;;2.92;2.05;;;;;;;14.51;100.00;97143.25;10344537;28;20201;-72
2022/08/31 18:20:57;;;;;;;5.72;2.33;;;;;;;13.87;100.00;97152.00;10352211;28;20198;-72
2022/08/31 18:25:58;;;;;;;3.22;2.30;;;;;;;14.13;100.00;97150.94;10359714;28;20259;-73
2022/08/31 18:31:06;;;;;;;5.22;2.08;;;;;;;14.01;100.00;97152.28;10373605;28;20734;-71
2022/08/31 18:36:09;;;;;;;3.22;2.13;;;;;;;13.77;100.00;97166.31;10373246;28;20320;-71
2022/08/31 18:46:30;;;;;;;4.93;2.17;;;;;;;13.50;100.00;97160.38;10351202;28;20708;-73
2022/08/31 18:51:41;;;;;;;3.85;2.42;;;;;;;13.42;100.00;97166.47;10372863;28;20181;-72
2022/08/31 18:56:42;;;;;;;2.67;2.38;;;;;;;13.31;100.00;97164.13;10371887;28;20832;-72
2022/08/31 19:01:42;;;;;;;5.18;2.95;;;;;;;13.24;100.00;97176.28;10372424;28;20201;-72
2022/08/31 19:06:44;;;;;;;6.20;2.92;;;;;;;13.12;100.00;97173.13;10371717;28;20292;-72
2022/08/31 19:11:48;;;;;;;4.68;2.58;;;;;;;13.16;100.00;97177.91;10371703;28;20251;-73
2022/08/31 19:16:49;;;;;;;3.65;3.08;;;;;;;13.08;100.00;97172.63;10370987;28;20280;-72
2022/08/31 19:21:50;;;;;;;6.38;3.00;;;;;;;13.03;100.00;97180.16;10371903;28;20281;-72
2022/08/31 19:26:52;;;;;;;9.35;3.25;;;;;;;12.93;100.00;97169.78;10370623;28;20294;-73
2022/08/31 19:31:55;;;;;;;5.60;3.08;;;;;;;12.81;100.00;97171.06;10370160;28;20288;-72
2022/08/31 19:36:56;;;;;;;2.80;2.60;;;;;;;12.83;100.00;97171.72;10363399;28;20209;-72
2022/08/31 19:42:02;;;;;;;4.93;2.50;;;;;;;12.80;100.00;97172.03;10347833;28;20194;-72
2022/08/31 19:47:02;;;;;;;3.22;2.63;;;;;;;12.70;100.00;97168.75;10349931;28;20209;-72
2022/08/31 19:52:05;;;;;;;4.90;2.92;;;;;;;12.67;100.00;97167.25;10346225;28;20517;-72
2022/08/31 19:57:07;;;;;;;7.13;3.03;;;;;;;12.65;100.00;97169.22;10369415;28;20234;-72
2022/08/31 20:02:07;;;;;;;4.95;2.42;;;;;;;12.54;100.00;97172.13;10367252;28;20649;-72
2022/08/31 20:07:08;;;;;;;5.78;3.30;;;;;;;12.42;100.00;97168.94;10369482;28;20312;-72
2022/08/31 20:12:08;;;;;;;3.53;3.00;;;;;;;12.35;100.00;97166.13;10370055;28;20251;-72
2022/08/31 20:17:10;;;;;;;5.07;3.13;;;;;;;12.16;100.00;97174.22;10369496;28;20197;-72
2022/08/31 20:22:12;;;;;;;4.68;2.88;;;;;;;12.07;100.00;97170.72;10369332;28;20189;-72
2022/08/31 20:27:15;;;;;;;6.13;3.20;;;;;;;12.03;100.00;97167.56;10369265;28;20308;-72
2022/08/31 20:32:15;;;;;;;4.05;3.15;;;;;;;11.94;100.00;97171.97;10368594;28;20232;-72
2022/08/31 20:37:15;;;;;;;3.65;3.30;;;;;;;11.86;100.00;97163.97;10367637;28;20248;-72
2022/08/31 20:42:16;;;;;;;2.97;2.60;;;;;;;11.85;100.00;97170.22;10368140;28;20190;-72
2022/08/31 20:52:35;;;;;;;6.10;3.38;;;;;;;11.65;100.00;97177.44;10368433;28;20186;-72
2022/08/31 20:57:39;;;;;;;3.60;3.30;;;;;;;11.64;100.00;97180.19;10367949;28;20237;-72
2022/08/31 21:02:40;;;;;;;4.05;3.40;;;;;;;11.57;100.00;97183.44;10366916;28;20239;-72
2022/08/31 21:07:40;;;;;;;4.57;3.10;;;;;;;11.55;100.00;97182.78;10367875;28;20283;-72
2022/08/31 21:12:40;;;;;;;3.17;2.70;;;;;;;11.51;100.00;97177.97;10367921;28;20219;-72
2022/08/31 21:17:41;;;;;;;5.15;3.15;;;;;;;11.41;100.00;97176.25;10367935;28;20196;-72
2022/08/31 21:22:41;;;;;;;5.88;3.47;;;;;;;11.29;100.00;97187.13;10368746;28;20215;-72
2022/08/31 21:27:42;;;;;;;4.53;3.70;;;;;;;11.21;100.00;97193.13;10368561;28;20217;-71
2022/08/31 21:32:43;;;;;;;7.57;3.50;;;;;;;11.12;100.00;97186.13;10368321;28;20216;-71
2022/08/31 21:37:43;;;;;;;6.20;3.15;;;;;;;11.10;100.00;97185.44;10368176;28;20213;-71
2022/08/31 21:42:43;;;;;;;6.68;3.28;;;;;;;11.03;100.00;97180.78;10368739;28;20681;-72
2022/08/31 21:47:44;;;;;;;10.32;3.03;;;;;;;11.02;100.00;97183.56;10368156;28;20558;-71
2022/08/31 21:52:44;;;;;;;7.47;3.30;;;;;;;10.91;100.00;97192.47;10369845;28;20276;-70
2022/08/31 21:57:44;;;;;;;4.43;3.60;;;;;;;10.89;100.00;97189.16;10375648;28;20229;-71
2022/08/31 22:02:45;;;;;;;4.30;3.37;;;;;;;10.82;100.00;97195.97;10375649;28;20207;-71
2022/08/31 22:07:45;;;;;;;5.60;3.53;;;;;;;10.86;100.00;97187.66;10375917;28;20229;-71
2022/08/31 22:12:46;;;;;;;3.80;3.50;;;;;;;10.76;100.00;97192.13;10375176;28;20276;-71
2022/08/31 22:17:46;;;;;;;5.43;3.20;;;;;;;10.72;100.00;97198.66;10375353;28;20185;-72
2022/08/31 22:22:46;;;;;;;5.77;3.33;;;;;;;10.66;100.00;97200.03;10374605;28;20283;-72
2022/08/31 22:27:47;;;;;;;4.70;3.90;;;;;;;10.70;100.00;97198.78;10374780;28;20212;-72
2022/08/31 22:32:47;;;;;;;4.37;3.27;;;;;;;10.63;100.00;97192.47;10374428;28;20220;-72
2022/08/31 22:37:48;;;;;;;8.20;3.80;;;;;;;10.54;100.00;97193.34;10373807;28;20699;-72
2022/08/31 22:42:49;;;;;;;3.57;3.27;;;;;;;10.51;100.00;97196.25;10374561;28;20225;-72
2022/08/31 22:47:50;;;;;;;3.83;3.53;;;;;;;10.41;100.00;97198.88;10374097;28;20228;-72
2022/08/31 22:52:50;;;;;;;6.03;3.13;;;;;;;10.40;100.00;97201.66;10374459;28;20232;-72
2022/08/31 22:57:51;;;;;;;5.17;3.60;;;;;;;10.38;100.00;97187.88;10373329;28;20230;-72
2022/08/31 23:02:51;;;;;;;5.47;3.40;;;;;;;10.37;100.00;97194.91;10372989;28;20558;-72
2022/08/31 23:07:52;;;;;;;3.53;3.23;;;;;;;10.35;100.00;97196.84;10372877;28;20774;-72
2022/08/31 23:12:54;;;;;;;4.70;3.53;;;;;;;10.33;100.00;97188.31;10372941;28;20450;-72
2022/08/31 23:17:56;;;;;;;6.60;3.47;;;;;;;10.28;100.00;97193.13;10372671;28;20193;-71
2022/08/31 23:22:56;;;;;;;6.23;3.30;;;;;;;10.19;100.00;97192.19;10372704;28;20555;-71
2022/08/31 23:27:58;;;;;;;5.37;3.60;;;;;;;10.11;100.00;97178.97;10372382;28;20229;-72
2022/08/31 23:33:01;;;;;;;6.53;3.60;;;;;;;10.07;100.00;97178.41;10372100;28;20200;-72
2022/08/31 23:38:01;;;;;;;5.47;3.20;;;;;;;10.04;100.00;97178.72;10371778;28;20205;-72
2022/08/31 23:43:04;;;;;;;6.73;3.50;;;;;;;9.98;100.00;97168.81;10372029;28;20193;-72
2022/08/31 23:48:04;;;;;;;4.17;3.60;;;;;;;10.00;100.00;97170.31;10371498;28;20232;-71
2022/08/31 23:53:13;;;;;;;7.23;3.57;;;;;;;9.91;100.00;97167.75;10371424;28;20729;-72
2022/08/31 23:58:14;;;;;;;5.27;3.33;;;;;;;9.84;100.00;97164.84;10371390;28;20716;-72
